createdAt,value
2019-04-26T00:00:49.123Z,20.00
2019-04-26T00:03:24.996Z,20.00
2019-04-26T00:05:55.811Z,20.00
2019-04-26T00:08:26.705Z,20.00
2019-04-26T00:11:16.107Z,19.90
2019-04-26T00:14:21.094Z,19.80
2019-04-26T00:17:01.821Z,19.70
2019-04-26T00:19:33.213Z,19.70
2019-04-26T00:22:04.009Z,19.70
2019-04-26T00:24:35.335Z,19.70
2019-04-26T00:27:05.940Z,19.70
2019-04-26T00:29:36.789Z,19.70
2019-04-26T00:32:07.719Z,19.60
2019-04-26T00:34:38.457Z,19.70
2019-04-26T00:37:09.521Z,19.60
2019-04-26T00:39:40.351Z,19.60
2019-04-26T00:42:12.224Z,19.60
2019-04-26T00:44:44.916Z,19.50
2019-04-26T00:47:16.971Z,19.40
2019-04-26T00:49:48.697Z,19.30
2019-04-26T00:52:19.611Z,19.20
2019-04-26T00:54:50.699Z,19.20
2019-04-26T00:57:22.434Z,19.20
2019-04-26T00:59:53.703Z,19.20
2019-04-26T01:02:42.177Z,19.20
2019-04-26T01:05:12.873Z,19.20
2019-04-26T01:07:45.179Z,19.20
2019-04-26T01:10:16.731Z,19.20
2019-04-26T01:12:48.599Z,19.20
2019-04-26T01:15:21.433Z,19.10
2019-04-26T01:17:52.106Z,19.00
2019-04-26T01:20:26.723Z,19.00
2019-04-26T01:23:00.550Z,19.00
2019-04-26T01:25:43.644Z,18.80
2019-04-26T01:28:18.496Z,18.80
2019-04-26T01:30:51.026Z,18.70
2019-04-26T01:33:22.581Z,18.70
2019-04-26T01:35:53.690Z,18.70
2019-04-26T01:38:25.625Z,18.70
2019-04-26T01:40:59.780Z,18.70
2019-04-26T01:43:51.985Z,18.70
2019-04-26T01:46:29.347Z,18.60
2019-04-26T01:49:03.011Z,18.60
2019-04-26T01:51:57.362Z,18.60
2019-04-26T01:54:32.421Z,18.50
2019-04-26T01:57:05.042Z,18.50
2019-04-26T01:59:39.588Z,18.50
2019-04-26T02:02:29.834Z,18.40
2019-04-26T02:05:03.875Z,18.50
2019-04-26T02:07:41.722Z,18.50
2019-04-26T02:10:17.660Z,18.50
2019-04-26T02:12:49.653Z,18.50
2019-04-26T02:15:24.473Z,18.40
2019-04-26T02:17:57.913Z,18.40
2019-04-26T02:21:16.669Z,18.40
2019-04-26T02:24:06.753Z,18.40
2019-04-26T02:26:39.324Z,18.30
2019-04-26T02:29:17.041Z,18.20
2019-04-26T02:31:53.683Z,18.10
2019-04-26T02:34:26.069Z,18.10
2019-04-26T02:37:00.670Z,18.10
2019-04-26T02:39:37.669Z,18.10
2019-04-26T02:42:16.464Z,18.10
2019-04-26T02:44:57.036Z,18.10
2019-04-26T02:47:51.679Z,18.00
2019-04-26T02:50:40.070Z,18.00
2019-04-26T02:53:36.565Z,17.90
2019-04-26T02:56:37.697Z,17.90
2019-04-26T02:59:38.248Z,17.90
2019-04-26T03:02:14.001Z,17.90
2019-04-26T03:04:47.647Z,17.90
2019-04-26T03:07:25.373Z,17.90
2019-04-26T03:09:58.391Z,17.80
2019-04-26T03:12:33.655Z,17.80
2019-04-26T03:15:32.166Z,17.80
2019-04-26T03:18:23.748Z,17.70
2019-04-26T03:21:00.221Z,17.60
2019-04-26T03:23:57.667Z,17.60
2019-04-26T03:26:43.347Z,17.50
2019-04-26T03:29:27.343Z,17.50
2019-04-26T03:32:16.443Z,17.40
2019-04-26T03:34:55.343Z,17.40
2019-04-26T03:37:46.790Z,17.40
2019-04-26T03:40:29.947Z,17.40
2019-04-26T03:43:48.214Z,17.40
2019-04-26T03:46:39.781Z,17.40
2019-04-26T03:49:25.761Z,17.30
2019-04-26T03:52:19.683Z,17.30
2019-04-26T03:54:54.287Z,17.20
2019-04-26T03:57:36.954Z,17.20
2019-04-26T04:00:43.417Z,17.20
2019-04-26T04:03:57.163Z,17.30
2019-04-26T04:06:48.443Z,17.20
2019-04-26T04:09:09.219Z,17.30
2019-04-26T04:12:10.298Z,17.30
2019-04-26T04:14:38.308Z,17.30
2019-04-26T04:17:29.535Z,17.30
2019-04-26T04:20:25.129Z,17.30
2019-04-26T04:23:07.062Z,17.30
2019-04-26T04:25:42.410Z,17.20
2019-04-26T04:28:26.598Z,17.20
2019-04-26T04:31:12.840Z,17.30
2019-04-26T04:33:52.463Z,17.30
2019-04-26T04:36:33.237Z,17.30
2019-04-26T04:39:38.628Z,17.30
2019-04-26T04:42:35.202Z,17.30
2019-04-26T04:45:56.341Z,17.40
2019-04-26T04:48:46.434Z,17.40
2019-04-26T04:51:36.755Z,17.40
2019-04-26T04:54:17.954Z,17.40
2019-04-26T04:57:12.216Z,17.40
2019-04-26T05:00:07.548Z,17.40
2019-04-26T05:02:52.066Z,17.40
2019-04-26T05:06:07.295Z,17.40
2019-04-26T05:08:40.989Z,17.40
2019-04-26T05:11:22.368Z,17.50
2019-04-26T05:14:12.736Z,17.50
2019-04-26T05:17:29.025Z,17.60
2019-04-26T05:20:32.092Z,17.60
2019-04-26T05:23:42.532Z,17.60
2019-04-26T05:27:08.983Z,17.50
2019-04-26T05:30:00.913Z,17.60
2019-04-26T05:32:57.751Z,17.60
2019-04-26T05:35:49.008Z,17.60
2019-04-26T05:38:45.503Z,17.70
2019-04-26T05:42:01.172Z,17.70
2019-04-26T05:45:08.584Z,17.70
2019-04-26T05:48:08.390Z,17.80
2019-04-26T05:51:14.524Z,17.80
2019-04-26T05:54:07.505Z,17.80
2019-04-26T05:57:06.291Z,17.70
2019-04-26T05:59:44.813Z,17.70
2019-04-26T06:03:13.928Z,17.70
2019-04-26T06:06:07.657Z,17.70
2019-04-26T06:09:28.644Z,17.70
2019-04-26T06:12:07.731Z,17.80
2019-04-26T06:15:28.456Z,17.80
2019-04-26T06:18:26.357Z,17.90
2019-04-26T06:21:25.587Z,18.00
2019-04-26T06:24:11.610Z,18.20
2019-04-26T06:27:13.128Z,18.20
2019-04-26T06:29:56.598Z,18.40
2019-04-26T06:32:56.146Z,18.50
2019-04-26T06:35:20.360Z,18.60
2019-04-26T06:39:02.326Z,18.60
2019-04-26T06:42:13.930Z,18.70
2019-04-26T06:45:41.048Z,18.90
2019-04-26T06:48:33.658Z,19.10
2019-04-26T06:51:24.168Z,19.30
2019-04-26T06:54:10.700Z,19.50
2019-04-26T06:57:15.324Z,19.60
2019-04-26T07:00:04.481Z,19.80
2019-04-26T07:03:32.035Z,19.90
2019-04-26T07:06:04.690Z,20.10
2019-04-26T07:08:58.077Z,20.20
2019-04-26T07:12:19.330Z,20.30
2019-04-26T07:15:33.472Z,20.40
2019-04-26T07:18:46.476Z,20.50
2019-04-26T07:21:35.815Z,20.70
2019-04-26T07:24:42.439Z,20.80
2019-04-26T07:27:27.407Z,20.80
2019-04-26T07:30:14.040Z,20.90
2019-04-26T07:33:33.755Z,21.00
2019-04-26T07:36:39.921Z,21.10
2019-04-26T07:39:48.732Z,21.30
2019-04-26T07:42:54.206Z,21.50
2019-04-26T07:45:47.117Z,21.70
2019-04-26T07:48:45.285Z,21.70
2019-04-26T07:52:02.835Z,21.80
2019-04-26T07:54:55.431Z,22.00
2019-04-26T07:57:46.317Z,22.10
2019-04-26T08:00:23.470Z,22.30
2019-04-26T08:03:19.328Z,22.40
2019-04-26T08:06:24.165Z,22.50
2019-04-26T08:09:07.554Z,22.70
2019-04-26T08:11:49.282Z,22.80
2019-04-26T08:14:27.633Z,22.90
2019-04-26T08:17:47.248Z,23.00
2019-04-26T08:20:48.345Z,23.10
2019-04-26T08:23:38.478Z,23.10
2019-04-26T08:26:01.848Z,23.00
2019-04-26T08:28:35.723Z,22.90
2019-04-26T08:31:09.459Z,22.90
2019-04-26T08:33:48.707Z,22.90
2019-04-26T08:36:23.244Z,22.90
2019-04-26T08:38:54.579Z,22.90
2019-04-26T08:41:26.145Z,22.90
2019-04-26T08:44:24.286Z,23.20
2019-04-26T08:47:16.987Z,23.70
2019-04-26T08:50:23.644Z,24.30
2019-04-26T08:52:57.939Z,24.60
2019-04-26T08:55:30.140Z,24.60
2019-04-26T08:58:04.247Z,24.50
2019-04-26T09:00:43.946Z,24.70
2019-04-26T09:03:55.142Z,24.90
2019-04-26T09:06:43.654Z,25.40
2019-04-26T09:09:22.567Z,25.50
2019-04-26T09:11:59.693Z,25.40
2019-04-26T09:14:31.996Z,25.50
2019-04-26T09:17:03.126Z,25.90
2019-04-26T09:19:33.962Z,26.20
2019-04-26T09:22:16.078Z,26.30
2019-04-26T09:24:59.437Z,26.50
2019-04-26T09:27:43.885Z,26.50
2019-04-26T09:30:33.983Z,26.40
2019-04-26T09:33:23.030Z,26.20
2019-04-26T09:35:53.816Z,26.10
2019-04-26T09:38:24.617Z,26.00
2019-04-26T09:40:56.316Z,25.90
2019-04-26T09:43:49.940Z,25.70
2019-04-26T09:46:57.949Z,25.60
2019-04-26T09:49:32.244Z,25.50
2019-04-26T09:52:03.950Z,25.50
2019-04-26T09:54:34.704Z,25.50
2019-04-26T09:57:05.634Z,25.50
2019-04-26T09:59:39.803Z,25.50
2019-04-26T10:02:09.963Z,25.40
2019-04-26T10:04:40.853Z,25.30
2019-04-26T10:07:11.653Z,25.30
2019-04-26T10:09:42.469Z,25.20
2019-04-26T10:12:24.722Z,25.20
2019-04-26T10:15:03.633Z,25.20
2019-04-26T10:17:34.850Z,25.20
2019-04-26T10:20:06.114Z,25.20
2019-04-26T10:22:37.088Z,25.20
2019-04-26T10:25:16.334Z,25.20
2019-04-26T10:27:42.565Z,25.10
2019-04-26T10:30:16.493Z,25.00
2019-04-26T10:32:47.501Z,24.90
2019-04-26T10:35:21.607Z,24.90
2019-04-26T10:37:52.589Z,24.90
2019-04-26T10:40:34.990Z,25.00
2019-04-26T10:42:55.715Z,25.00
2019-04-26T10:45:27.030Z,25.10
2019-04-26T10:47:57.781Z,25.00
2019-04-26T10:50:39.742Z,24.90
2019-04-26T10:53:17.633Z,24.80
2019-04-26T10:56:05.976Z,24.80
2019-04-26T10:58:55.894Z,24.80
2019-04-26T11:01:26.869Z,24.80
2019-04-26T11:03:57.793Z,24.70
2019-04-26T11:06:29.090Z,24.70
2019-04-26T11:08:59.961Z,24.70
2019-04-26T11:11:30.863Z,24.80
2019-04-26T11:14:01.767Z,24.90
2019-04-26T11:16:32.502Z,25.00
2019-04-26T11:19:03.408Z,25.10
2019-04-26T11:21:34.501Z,25.10
2019-04-26T11:24:05.138Z,25.10
2019-04-26T11:26:36.294Z,25.10
2019-04-26T11:29:06.882Z,25.00
2019-04-26T11:31:38.063Z,24.90
2019-04-26T11:34:08.998Z,24.80
2019-04-26T11:36:41.831Z,24.80
2019-04-26T11:39:13.386Z,24.70
2019-04-26T11:41:43.925Z,24.60
2019-04-26T11:44:14.281Z,24.50
2019-04-26T11:46:45.468Z,24.50
2019-04-26T11:49:16.183Z,24.40
2019-04-26T11:51:46.617Z,24.40
2019-04-26T11:54:20.637Z,24.40
2019-04-26T11:56:50.582Z,24.40
2019-04-26T11:59:21.116Z,24.40
2019-04-26T12:01:51.560Z,24.40
2019-04-26T12:04:43.703Z,24.50
2019-04-26T12:07:28.907Z,24.50
2019-04-26T12:10:01.411Z,24.50
2019-04-26T12:12:33.411Z,24.60
2019-04-26T12:15:08.419Z,24.70
2019-04-26T12:17:37.544Z,24.90
2019-04-26T12:20:08.522Z,25.10
2019-04-26T12:22:39.391Z,25.20
2019-04-26T12:25:11.456Z,25.20
2019-04-26T12:27:42.074Z,25.30
2019-04-26T12:30:13.154Z,25.30
2019-04-26T12:32:43.506Z,25.40
2019-04-26T12:35:14.157Z,25.50
2019-04-26T12:37:44.520Z,25.50
2019-04-26T12:40:15.116Z,25.50
2019-04-26T12:42:47.356Z,25.40
2019-04-26T12:45:39.760Z,25.40
2019-04-26T12:48:15.647Z,25.30
2019-04-26T12:50:44.525Z,25.30
2019-04-26T12:53:17.892Z,25.30
2019-04-26T12:55:49.164Z,25.20
2019-04-26T12:58:19.368Z,25.10
2019-04-26T13:00:54.350Z,25.00
2019-04-26T13:03:24.916Z,25.00
2019-04-26T13:05:58.221Z,25.10
2019-04-26T13:08:26.805Z,25.00
2019-04-26T13:11:18.928Z,24.90
2019-04-26T13:14:01.854Z,24.80
2019-04-26T13:16:42.996Z,24.80
2019-04-26T13:19:16.026Z,24.80
2019-04-26T13:21:46.672Z,24.70
2019-04-26T13:24:17.091Z,24.60
2019-04-26T13:26:50.030Z,24.60
2019-04-26T13:29:19.695Z,24.60
2019-04-26T13:31:50.039Z,24.70
2019-04-26T13:34:20.565Z,24.60
2019-04-26T13:36:50.950Z,24.60
2019-04-26T13:39:22.522Z,24.70
2019-04-26T13:42:03.051Z,24.70
2019-04-26T13:44:49.970Z,24.60
2019-04-26T13:47:37.039Z,24.60
2019-04-26T13:50:12.363Z,24.70
2019-04-26T13:52:42.926Z,24.70
2019-04-26T13:55:13.637Z,24.70
2019-04-26T13:57:44.524Z,24.70
2019-04-26T14:00:23.560Z,24.80
2019-04-26T14:02:54.037Z,24.70
2019-04-26T14:05:24.648Z,24.70
2019-04-26T14:07:55.017Z,24.60
2019-04-26T14:10:25.685Z,24.60
2019-04-26T14:12:56.184Z,24.60
2019-04-26T14:15:27.866Z,24.70
2019-04-26T14:18:00.296Z,24.70
2019-04-26T14:20:30.346Z,24.70
2019-04-26T14:23:18.381Z,24.80
2019-04-26T14:26:01.116Z,24.80
2019-04-26T14:28:30.822Z,24.70
2019-04-26T14:31:01.392Z,24.70
2019-04-26T14:33:32.316Z,24.70
2019-04-26T14:36:02.929Z,24.70
2019-04-26T14:38:39.334Z,24.60
2019-04-26T14:41:06.272Z,24.60
2019-04-26T14:43:41.067Z,24.50
2019-04-26T14:46:10.384Z,24.60
2019-04-26T14:48:44.739Z,24.60
2019-04-26T14:51:16.811Z,24.70
2019-04-26T14:53:47.263Z,24.60
2019-04-26T14:56:18.299Z,24.50
2019-04-26T14:58:49.263Z,24.50
2019-04-26T15:01:38.957Z,24.50
2019-04-26T15:04:37.569Z,24.40
2019-04-26T15:07:08.419Z,24.40
2019-04-26T15:09:39.328Z,24.40
2019-04-26T15:12:12.501Z,24.30
2019-04-26T15:14:42.347Z,24.20
2019-04-26T15:17:16.402Z,24.10
2019-04-26T15:19:47.170Z,24.00
2019-04-26T15:22:19.228Z,24.00
2019-04-26T15:24:50.190Z,23.90
2019-04-26T15:27:21.224Z,23.90
2019-04-26T15:29:52.572Z,23.90
2019-04-26T15:32:24.051Z,23.90
2019-04-26T15:34:58.623Z,23.90
2019-04-26T15:37:28.543Z,23.90
2019-04-26T15:40:06.280Z,23.90
2019-04-26T15:42:58.876Z,23.90
2019-04-26T15:45:35.893Z,23.90
2019-04-26T15:48:32.145Z,23.90
2019-04-26T15:51:03.547Z,23.80
2019-04-26T15:53:33.981Z,23.80
2019-04-26T15:56:04.436Z,23.80
2019-04-26T15:58:38.581Z,23.90
2019-04-26T16:01:10.859Z,23.90
2019-04-26T16:03:40.846Z,23.90
2019-04-26T16:06:12.656Z,23.90
2019-04-26T16:08:43.982Z,23.90
2019-04-26T16:11:15.428Z,23.90
2019-04-26T16:13:53.864Z,23.90
2019-04-26T16:16:20.730Z,23.90
2019-04-26T16:18:55.970Z,23.90
2019-04-26T16:21:23.321Z,23.90
2019-04-26T16:23:55.285Z,23.90
2019-04-26T16:26:26.053Z,23.90
2019-04-26T16:29:18.368Z,23.90
2019-04-26T16:32:09.513Z,23.90
2019-04-26T16:34:47.725Z,23.90
2019-04-26T16:37:14.963Z,23.90
2019-04-26T16:39:48.510Z,23.90
2019-04-26T16:42:17.801Z,23.90
2019-04-26T16:44:48.339Z,23.90
2019-04-26T16:47:18.794Z,23.70
2019-04-26T16:49:49.265Z,23.50
2019-04-26T16:52:19.928Z,23.20
2019-04-26T16:54:52.903Z,23.00
2019-04-26T16:57:24.303Z,22.90
2019-04-26T16:59:59.779Z,22.80
2019-04-26T17:02:28.177Z,22.60
2019-04-26T17:05:04.570Z,22.50
2019-04-26T17:07:30.882Z,22.40
2019-04-26T17:10:03.109Z,22.30
2019-04-26T17:12:33.567Z,22.10
2019-04-26T17:15:04.537Z,22.00
2019-04-26T17:17:35.092Z,21.70
2019-04-26T17:20:10.728Z,21.50
2019-04-26T17:23:01.078Z,21.30
2019-04-26T17:25:41.870Z,21.10
2019-04-26T17:28:13.964Z,21.00
2019-04-26T17:30:45.512Z,20.70
2019-04-26T17:33:15.896Z,20.50
2019-04-26T17:35:46.321Z,20.30
2019-04-26T17:38:16.831Z,20.20
2019-04-26T17:40:47.441Z,20.00
2019-04-26T17:43:17.876Z,19.70
2019-04-26T17:45:48.223Z,19.60
2019-04-26T17:48:18.627Z,19.30
2019-04-26T17:50:49.268Z,19.20
2019-04-26T17:53:28.624Z,18.90
2019-04-26T17:55:54.771Z,18.70
2019-04-26T17:58:31.035Z,18.60
2019-04-26T18:00:56.543Z,18.50
2019-04-26T18:03:28.261Z,18.40
2019-04-26T18:06:00.869Z,18.20
2019-04-26T18:08:36.779Z,18.10
2019-04-26T18:11:03.107Z,18.00
2019-04-26T18:13:33.571Z,17.90
2019-04-26T18:16:04.037Z,17.70
2019-04-26T18:19:02.421Z,17.70
2019-04-26T18:22:00.076Z,17.50
2019-04-26T18:24:32.238Z,17.30
2019-04-26T18:27:03.528Z,17.10
2019-04-26T18:29:34.271Z,17.00
2019-04-26T18:32:04.945Z,16.90
2019-04-26T18:34:40.254Z,16.80
2019-04-26T18:37:07.723Z,16.70
2019-04-26T18:39:39.185Z,16.50
2019-04-26T18:42:11.046Z,16.40
2019-04-26T18:44:47.581Z,16.50
2019-04-26T18:47:30.313Z,16.40
2019-04-26T18:50:03.693Z,16.30
2019-04-26T18:52:37.324Z,16.10
2019-04-26T18:55:16.304Z,16.10
2019-04-26T18:57:47.344Z,16.10
2019-04-26T19:00:30.260Z,15.80
2019-04-26T19:03:00.594Z,15.70
2019-04-26T19:05:31.101Z,15.70
2019-04-26T19:08:02.625Z,15.70
2019-04-26T19:10:34.373Z,15.70
2019-04-26T19:13:25.022Z,15.50
2019-04-26T19:16:05.970Z,15.30
2019-04-26T19:18:45.465Z,15.20
2019-04-26T19:21:39.154Z,15.30
2019-04-26T19:24:11.642Z,15.30
2019-04-26T19:26:39.221Z,15.30
2019-04-26T19:29:16.395Z,15.10
2019-04-26T19:31:42.985Z,14.90
2019-04-26T19:34:13.431Z,14.70
2019-04-26T19:36:43.893Z,14.60
2019-04-26T19:39:14.749Z,14.50
2019-04-26T19:41:46.165Z,14.50
2019-04-26T19:44:18.905Z,14.40
2019-04-26T19:47:07.376Z,14.40
2019-04-26T19:50:09.770Z,14.30
2019-04-26T19:52:55.823Z,14.40
2019-04-26T19:55:36.742Z,14.40
2019-04-26T19:58:16.605Z,14.20
2019-04-26T20:00:46.825Z,14.00
2019-04-26T20:03:17.687Z,14.00
2019-04-26T20:05:48.101Z,14.10
2019-04-26T20:08:19.712Z,14.00
2019-04-26T20:10:51.973Z,14.00
2019-04-26T20:13:22.509Z,13.90
2019-04-26T20:15:57.302Z,13.80
2019-04-26T20:18:25.886Z,13.80
2019-04-26T20:20:56.305Z,13.70
2019-04-26T20:23:26.732Z,13.60
2019-04-26T20:26:02.356Z,13.60
2019-04-26T20:28:35.885Z,13.50
2019-04-26T20:31:24.204Z,13.60
2019-04-26T20:33:54.622Z,13.60
2019-04-26T20:36:25.075Z,13.60
2019-04-26T20:38:55.652Z,13.50
2019-04-26T20:41:26.294Z,13.50
2019-04-26T20:44:07.059Z,13.50
2019-04-26T20:46:29.766Z,13.50
2019-04-26T20:49:01.484Z,13.40
2019-04-26T20:51:33.140Z,13.40
2019-04-26T20:54:03.883Z,13.40
2019-04-26T20:56:34.647Z,13.50
2019-04-26T20:59:05.121Z,13.50
2019-04-26T21:01:35.573Z,13.40
2019-04-26T21:04:06.117Z,13.30
2019-04-26T21:06:37.017Z,13.30
2019-04-26T21:09:09.544Z,13.10
2019-04-26T21:11:41.245Z,13.00
2019-04-26T21:14:12.323Z,13.10
2019-04-26T21:16:43.697Z,13.10
2019-04-26T21:19:19.063Z,13.00
2019-04-26T21:21:48.385Z,13.20
2019-04-26T21:24:23.417Z,13.20
2019-04-26T21:27:11.263Z,13.20
2019-04-26T21:29:58.979Z,13.20
2019-04-26T21:32:45.192Z,13.20
2019-04-26T21:35:20.384Z,13.20
2019-04-26T21:37:56.487Z,13.10
2019-04-26T21:40:33.587Z,13.00
2019-04-26T21:43:04.212Z,12.90
2019-04-26T21:45:34.877Z,13.00
2019-04-26T21:48:06.949Z,13.00
2019-04-26T21:50:39.080Z,13.00
2019-04-26T21:53:09.992Z,13.00
2019-04-26T21:55:40.385Z,13.00
2019-04-26T21:58:10.801Z,13.00
2019-04-26T22:01:11.003Z,13.00
2019-04-26T22:03:47.417Z,13.00
2019-04-26T22:06:14.249Z,13.00
2019-04-26T22:09:06.481Z,12.90
2019-04-26T22:11:38.580Z,12.90
2019-04-26T22:14:20.042Z,12.90
2019-04-26T22:17:02.036Z,12.90
2019-04-26T22:19:53.452Z,12.90
2019-04-26T22:22:45.989Z,12.90
2019-04-26T22:25:17.962Z,12.90
2019-04-26T22:27:48.333Z,12.90
2019-04-26T22:30:29.408Z,12.80
2019-04-26T22:33:00.037Z,12.80
2019-04-26T22:35:30.426Z,12.80
2019-04-26T22:38:00.915Z,12.70
2019-04-26T22:40:33.414Z,12.60
2019-04-26T22:43:20.038Z,12.60
2019-04-26T22:45:53.591Z,12.60
2019-04-26T22:48:34.006Z,12.50
2019-04-26T22:51:05.516Z,12.50
2019-04-26T22:53:35.965Z,12.50
2019-04-26T22:56:06.472Z,12.40
2019-04-26T22:58:36.843Z,12.40
2019-04-26T23:01:07.387Z,12.30
2019-04-26T23:03:41.138Z,12.30
2019-04-26T23:06:11.682Z,12.30
2019-04-26T23:08:43.806Z,12.30
2019-04-26T23:11:15.551Z,12.30
2019-04-26T23:14:05.022Z,12.20
2019-04-26T23:17:04.320Z,12.10
2019-04-26T23:19:43.683Z,12.20
2019-04-26T23:22:14.150Z,12.30
2019-04-26T23:24:44.880Z,12.30
2019-04-26T23:27:20.423Z,12.30
2019-04-26T23:29:49.904Z,12.30
2019-04-26T23:32:20.155Z,12.30
2019-04-26T23:34:50.872Z,12.20
2019-04-26T23:37:24.215Z,12.30
2019-04-26T23:39:53.722Z,12.30
2019-04-26T23:42:25.134Z,12.30
2019-04-26T23:44:56.761Z,12.30
2019-04-26T23:47:27.272Z,12.30
2019-04-26T23:49:57.636Z,12.30
2019-04-26T23:52:28.165Z,12.20
2019-04-26T23:54:58.595Z,12.20
2019-04-26T23:57:31.309Z,12.10
